Weather at Ikaros Airfield [CLOSED]

Public forecast

Using degrees Celsius for public forecast. Weather courtesy of forecast.io.

Closest aviation weather report (METAR) to Ikaros Airfield

Closest report is Tanagra Air Base, 21.0 nm (38.9 km) ESE.

2024/07/20 20:50 (retrieved 42 minutes ago)

LGTG 202050Z 00000KT CAVOK 24/09 Q1008 BLU

Closest aviation forecast (TAF) to Ikaros Airfield

Closest forecast is Elefsis Air Base, 29.7 nm (55.0 km) SE.

2024/07/20 18:13 (retrieved 3 hours ago)

TAF LGEL 201700Z 2018/2118 35012KT CAVOK BECMG 2020/2022 VRB05KT BECMG 2107/2109 17010KT 9999 FEW030